sensor_id;sensor_type;location;lat;lon;timestamp;temperature;humidity
31967;DHT22;18496;52.042;6.812;2023-03-14T00:01:32;13.70;99.90
31967;DHT22;18496;52.042;6.812;2023-03-14T00:03:36;13.70;99.90
31967;DHT22;18496;52.042;6.812;2023-03-14T00:05:39;13.70;99.90
31967;DHT22;18496;52.042;6.812;2023-03-14T00:07:43;13.70;99.90
31967;DHT22;18496;52.042;6.812;2023-03-14T00:09:46;13.70;99.90
31967;DHT22;18496;52.042;6.812;2023-03-14T00:11:50;13.70;99.90
31967;DHT22;18496;52.042;6.812;2023-03-14T00:13:53;13.60;99.90
31967;DHT22;18496;52.042;6.812;2023-03-14T00:16:01;13.60;99.90
31967;DHT22;18496;52.042;6.812;2023-03-14T00:18:05;13.60;99.90
31967;DHT22;18496;52.042;6.812;2023-03-14T00:20:08;13.60;99.90
31967;DHT22;18496;52.042;6.812;2023-03-14T00:22:13;13.60;99.90
31967;DHT22;18496;52.042;6.812;2023-03-14T00:24:16;13.60;99.90
31967;DHT22;18496;52.042;6.812;2023-03-14T00:26:20;13.60;99.90
31967;DHT22;18496;52.042;6.812;2023-03-14T00:28:24;13.60;99.90
31967;DHT22;18496;52.042;6.812;2023-03-14T00:30:27;13.60;99.90
31967;DHT22;18496;52.042;6.812;2023-03-14T00:32:31;13.60;99.90
31967;DHT22;18496;52.042;6.812;2023-03-14T00:34:34;13.60;99.90
31967;DHT22;18496;52.042;6.812;2023-03-14T00:36:38;13.70;99.90
31967;DHT22;18496;52.042;6.812;2023-03-14T00:38:43;13.60;99.90
31967;DHT22;18496;52.042;6.812;2023-03-14T00:40:47;13.60;99.90
31967;DHT22;18496;52.042;6.812;2023-03-14T00:42:51;13.60;99.90
31967;DHT22;18496;52.042;6.812;2023-03-14T00:44:54;13.60;99.90
31967;DHT22;18496;52.042;6.812;2023-03-14T00:46:58;13.60;99.90
31967;DHT22;18496;52.042;6.812;2023-03-14T00:49:02;13.60;99.90
31967;DHT22;18496;52.042;6.812;2023-03-14T00:51:06;13.60;99.90
31967;DHT22;18496;52.042;6.812;2023-03-14T00:53:10;13.60;99.90
31967;DHT22;18496;52.042;6.812;2023-03-14T00:55:13;13.60;99.90
31967;DHT22;18496;52.042;6.812;2023-03-14T00:57:17;13.60;99.90
31967;DHT22;18496;52.042;6.812;2023-03-14T00:59:21;13.60;99.90
31967;DHT22;18496;52.042;6.812;2023-03-14T01:01:24;13.60;99.90
31967;DHT22;18496;52.042;6.812;2023-03-14T01:03:28;13.60;99.90
31967;DHT22;18496;52.042;6.812;2023-03-14T01:05:31;13.60;99.90
31967;DHT22;18496;52.042;6.812;2023-03-14T01:07:36;13.60;99.90
31967;DHT22;18496;52.042;6.812;2023-03-14T01:09:42;13.50;99.90
31967;DHT22;18496;52.042;6.812;2023-03-14T01:11:46;13.50;99.90
31967;DHT22;18496;52.042;6.812;2023-03-14T01:13:49;13.50;99.90
31967;DHT22;18496;52.042;6.812;2023-03-14T01:15:53;13.40;99.90
31967;DHT22;18496;52.042;6.812;2023-03-14T01:17:56;13.30;99.90
31967;DHT22;18496;52.042;6.812;2023-03-14T01:20:00;13.30;99.90
31967;DHT22;18496;52.042;6.812;2023-03-14T01:22:04;13.20;99.90
31967;DHT22;18496;52.042;6.812;2023-03-14T01:24:10;13.10;99.90
31967;DHT22;18496;52.042;6.812;2023-03-14T01:26:15;13.10;99.90
31967;DHT22;18496;52.042;6.812;2023-03-14T01:28:19;13.10;99.90
31967;DHT22;18496;52.042;6.812;2023-03-14T01:30:22;13.10;99.90
31967;DHT22;18496;52.042;6.812;2023-03-14T01:32:26;13.10;99.90
31967;DHT22;18496;52.042;6.812;2023-03-14T01:34:30;13.10;99.90
31967;DHT22;18496;52.042;6.812;2023-03-14T01:36:34;13.10;99.90
31967;DHT22;18496;52.042;6.812;2023-03-14T01:38:39;13.10;99.90
31967;DHT22;18496;52.042;6.812;2023-03-14T01:40:44;13.00;99.90
31967;DHT22;18496;52.042;6.812;2023-03-14T01:42:58;13.00;99.90
31967;DHT22;18496;52.042;6.812;2023-03-14T01:45:02;13.00;99.90
31967;DHT22;18496;52.042;6.812;2023-03-14T01:47:06;13.00;99.90
31967;DHT22;18496;52.042;6.812;2023-03-14T01:51:16;12.90;99.90
31967;DHT22;18496;52.042;6.812;2023-03-14T01:53:21;12.90;99.90
31967;DHT22;18496;52.042;6.812;2023-03-14T01:55:25;12.90;99.90
31967;DHT22;18496;52.042;6.812;2023-03-14T01:57:33;12.90;99.90
31967;DHT22;18496;52.042;6.812;2023-03-14T01:59:38;12.90;99.90
31967;DHT22;18496;52.042;6.812;2023-03-14T02:01:44;12.90;99.90
31967;DHT22;18496;52.042;6.812;2023-03-14T02:03:59;12.90;99.90
31967;DHT22;18496;52.042;6.812;2023-03-14T02:06:06;12.90;99.90
31967;DHT22;18496;52.042;6.812;2023-03-14T02:08:13;12.90;99.90
31967;DHT22;18496;52.042;6.812;2023-03-14T02:10:33;13.00;99.90
31967;DHT22;18496;52.042;6.812;2023-03-14T02:12:39;12.90;99.90
31967;DHT22;18496;52.042;6.812;2023-03-14T02:14:54;12.90;99.90
31967;DHT22;18496;52.042;6.812;2023-03-14T02:17:05;12.90;99.90
31967;DHT22;18496;52.042;6.812;2023-03-14T02:19:49;12.90;99.90
31967;DHT22;18496;52.042;6.812;2023-03-14T02:22:13;12.90;99.90
31967;DHT22;18496;52.042;6.812;2023-03-14T02:24:55;12.90;99.90
31967;DHT22;18496;52.042;6.812;2023-03-14T02:27:00;12.90;99.90
31967;DHT22;18496;52.042;6.812;2023-03-14T02:29:04;12.90;99.90
31967;DHT22;18496;52.042;6.812;2023-03-14T02:31:08;12.90;99.90
31967;DHT22;18496;52.042;6.812;2023-03-14T02:33:13;12.90;99.90
31967;DHT22;18496;52.042;6.812;2023-03-14T02:35:21;12.90;99.90
31967;DHT22;18496;52.042;6.812;2023-03-14T02:37:36;12.90;99.90
31967;DHT22;18496;52.042;6.812;2023-03-14T02:39:43;12.90;99.90
31967;DHT22;18496;52.042;6.812;2023-03-14T02:41:48;12.90;99.90
31967;DHT22;18496;52.042;6.812;2023-03-14T02:43:53;12.90;99.90
31967;DHT22;18496;52.042;6.812;2023-03-14T02:45:57;12.90;99.90
31967;DHT22;18496;52.042;6.812;2023-03-14T02:48:04;12.80;99.90
31967;DHT22;18496;52.042;6.812;2023-03-14T02:50:15;12.90;99.90
31967;DHT22;18496;52.042;6.812;2023-03-14T02:52:20;12.90;99.90
31967;DHT22;18496;52.042;6.812;2023-03-14T02:54:23;12.90;99.90
31967;DHT22;18496;52.042;6.812;2023-03-14T02:56:28;12.90;99.90
31967;DHT22;18496;52.042;6.812;2023-03-14T02:58:33;12.90;99.90
31967;DHT22;18496;52.042;6.812;2023-03-14T03:00:44;12.80;99.90
31967;DHT22;18496;52.042;6.812;2023-03-14T03:02:49;12.80;99.90
31967;DHT22;18496;52.042;6.812;2023-03-14T03:04:52;12.80;99.90
31967;DHT22;18496;52.042;6.812;2023-03-14T03:06:57;12.70;99.90
31967;DHT22;18496;52.042;6.812;2023-03-14T03:09:01;12.70;99.90
31967;DHT22;18496;52.042;6.812;2023-03-14T03:11:05;12.70;99.90
31967;DHT22;18496;52.042;6.812;2023-03-14T03:13:10;12.60;99.90
31967;DHT22;18496;52.042;6.812;2023-03-14T03:15:14;12.60;99.90
31967;DHT22;18496;52.042;6.812;2023-03-14T03:17:17;12.50;99.90
31967;DHT22;18496;52.042;6.812;2023-03-14T03:19:21;12.60;99.90
31967;DHT22;18496;52.042;6.812;2023-03-14T03:21:25;12.60;99.90
31967;DHT22;18496;52.042;6.812;2023-03-14T03:23:28;12.50;99.90
31967;DHT22;18496;52.042;6.812;2023-03-14T03:25:32;12.50;99.90
31967;DHT22;18496;52.042;6.812;2023-03-14T03:27:39;12.50;99.90
31967;DHT22;18496;52.042;6.812;2023-03-14T03:29:42;12.50;99.90
31967;DHT22;18496;52.042;6.812;2023-03-14T03:31:46;12.50;99.90
31967;DHT22;18496;52.042;6.812;2023-03-14T03:33:50;12.40;99.90
31967;DHT22;18496;52.042;6.812;2023-03-14T03:35:54;12.40;99.90
31967;DHT22;18496;52.042;6.812;2023-03-14T03:38:05;12.40;99.90
31967;DHT22;18496;52.042;6.812;2023-03-14T03:40:09;12.40;99.90
31967;DHT22;18496;52.042;6.812;2023-03-14T03:42:13;12.40;99.90
31967;DHT22;18496;52.042;6.812;2023-03-14T03:44:17;12.30;99.90
31967;DHT22;18496;52.042;6.812;2023-03-14T03:46:21;12.30;99.90
31967;DHT22;18496;52.042;6.812;2023-03-14T03:48:24;12.30;99.90
31967;DHT22;18496;52.042;6.812;2023-03-14T03:50:28;12.30;99.90
31967;DHT22;18496;52.042;6.812;2023-03-14T03:52:31;12.20;99.90
31967;DHT22;18496;52.042;6.812;2023-03-14T03:54:35;12.20;99.90
31967;DHT22;18496;52.042;6.812;2023-03-14T03:56:39;12.10;99.90
31967;DHT22;18496;52.042;6.812;2023-03-14T03:58:43;12.10;99.90
31967;DHT22;18496;52.042;6.812;2023-03-14T04:00:47;12.10;99.90
31967;DHT22;18496;52.042;6.812;2023-03-14T04:02:50;12.00;99.90
31967;DHT22;18496;52.042;6.812;2023-03-14T04:04:55;12.00;99.90
31967;DHT22;18496;52.042;6.812;2023-03-14T04:06:59;12.10;99.90
31967;DHT22;18496;52.042;6.812;2023-03-14T04:09:03;12.00;99.90
31967;DHT22;18496;52.042;6.812;2023-03-14T04:11:25;12.00;99.90
31967;DHT22;18496;52.042;6.812;2023-03-14T04:13:38;12.00;99.90
31967;DHT22;18496;52.042;6.812;2023-03-14T04:15:42;12.00;99.90
31967;DHT22;18496;52.042;6.812;2023-03-14T04:17:55;12.00;99.90
31967;DHT22;18496;52.042;6.812;2023-03-14T04:19:59;12.00;99.90
31967;DHT22;18496;52.042;6.812;2023-03-14T04:22:11;12.00;99.90
31967;DHT22;18496;52.042;6.812;2023-03-14T04:24:23;12.00;99.90
31967;DHT22;18496;52.042;6.812;2023-03-14T04:26:26;12.00;99.90
31967;DHT22;18496;52.042;6.812;2023-03-14T04:28:30;12.00;99.90
31967;DHT22;18496;52.042;6.812;2023-03-14T04:30:34;11.90;99.90
31967;DHT22;18496;52.042;6.812;2023-03-14T04:32:46;11.90;99.90
31967;DHT22;18496;52.042;6.812;2023-03-14T04:34:50;11.90;99.90
31967;DHT22;18496;52.042;6.812;2023-03-14T04:36:54;11.90;99.90
31967;DHT22;18496;52.042;6.812;2023-03-14T04:39:04;11.80;99.90
31967;DHT22;18496;52.042;6.812;2023-03-14T04:41:08;11.90;99.90
31967;DHT22;18496;52.042;6.812;2023-03-14T04:43:12;11.90;99.90
31967;DHT22;18496;52.042;6.812;2023-03-14T04:45:23;11.90;99.90
31967;DHT22;18496;52.042;6.812;2023-03-14T04:47:27;11.90;99.90
31967;DHT22;18496;52.042;6.812;2023-03-14T04:49:32;11.90;99.90
31967;DHT22;18496;52.042;6.812;2023-03-14T04:51:37;11.80;99.90
31967;DHT22;18496;52.042;6.812;2023-03-14T04:53:40;11.80;99.90
31967;DHT22;18496;52.042;6.812;2023-03-14T04:55:48;11.80;99.90
31967;DHT22;18496;52.042;6.812;2023-03-14T04:57:52;11.80;99.90
31967;DHT22;18496;52.042;6.812;2023-03-14T04:59:55;11.80;99.90
31967;DHT22;18496;52.042;6.812;2023-03-14T05:02:18;11.80;99.90
31967;DHT22;18496;52.042;6.812;2023-03-14T05:04:32;11.80;99.90
31967;DHT22;18496;52.042;6.812;2023-03-14T05:06:51;11.80;99.90
31967;DHT22;18496;52.042;6.812;2023-03-14T05:09:18;11.90;99.90
31967;DHT22;18496;52.042;6.812;2023-03-14T05:11:46;11.90;99.90
31967;DHT22;18496;52.042;6.812;2023-03-14T05:14:28;11.90;99.90
31967;DHT22;18496;52.042;6.812;2023-03-14T05:16:42;11.90;99.90
31967;DHT22;18496;52.042;6.812;2023-03-14T05:19:06;11.90;99.90
31967;DHT22;18496;52.042;6.812;2023-03-14T05:21:09;11.90;99.90
31967;DHT22;18496;52.042;6.812;2023-03-14T05:23:46;11.90;99.90
31967;DHT22;18496;52.042;6.812;2023-03-14T05:26:02;11.90;99.90
31967;DHT22;18496;52.042;6.812;2023-03-14T05:28:26;11.90;99.90
31967;DHT22;18496;52.042;6.812;2023-03-14T05:30:48;11.90;99.90
31967;DHT22;18496;52.042;6.812;2023-03-14T05:33:00;12.00;99.90
31967;DHT22;18496;52.042;6.812;2023-03-14T05:35:16;12.00;99.90
31967;DHT22;18496;52.042;6.812;2023-03-14T05:37:38;11.90;99.90
31967;DHT22;18496;52.042;6.812;2023-03-14T05:40:00;11.90;99.90
31967;DHT22;18496;52.042;6.812;2023-03-14T05:42:24;11.90;99.90
31967;DHT22;18496;52.042;6.812;2023-03-14T05:44:54;11.90;99.90
31967;DHT22;18496;52.042;6.812;2023-03-14T05:47:19;11.90;99.90
31967;DHT22;18496;52.042;6.812;2023-03-14T05:49:42;11.90;99.90
31967;DHT22;18496;52.042;6.812;2023-03-14T05:51:53;11.90;99.90
31967;DHT22;18496;52.042;6.812;2023-03-14T05:54:17;11.80;99.90
31967;DHT22;18496;52.042;6.812;2023-03-14T05:56:44;11.80;99.90
31967;DHT22;18496;52.042;6.812;2023-03-14T05:59:06;11.90;99.90
31967;DHT22;18496;52.042;6.812;2023-03-14T06:01:35;11.90;99.90
31967;DHT22;18496;52.042;6.812;2023-03-14T06:03:50;11.80;99.90
31967;DHT22;18496;52.042;6.812;2023-03-14T06:05:54;11.80;99.90
31967;DHT22;18496;52.042;6.812;2023-03-14T06:08:00;11.80;99.90
31967;DHT22;18496;52.042;6.812;2023-03-14T06:10:05;11.80;99.90
31967;DHT22;18496;52.042;6.812;2023-03-14T06:12:09;11.80;99.90
31967;DHT22;18496;52.042;6.812;2023-03-14T06:14:18;11.80;99.90
31967;DHT22;18496;52.042;6.812;2023-03-14T06:16:24;11.80;99.90
31967;DHT22;18496;52.042;6.812;2023-03-14T06:18:30;11.90;99.90
31967;DHT22;18496;52.042;6.812;2023-03-14T06:20:37;11.80;99.90
31967;DHT22;18496;52.042;6.812;2023-03-14T06:22:42;11.90;99.90
31967;DHT22;18496;52.042;6.812;2023-03-14T06:24:48;11.80;99.90
31967;DHT22;18496;52.042;6.812;2023-03-14T06:26:53;11.80;99.90
31967;DHT22;18496;52.042;6.812;2023-03-14T06:28:58;11.80;99.90
31967;DHT22;18496;52.042;6.812;2023-03-14T06:31:06;11.80;99.90
31967;DHT22;18496;52.042;6.812;2023-03-14T06:33:17;11.70;99.90
31967;DHT22;18496;52.042;6.812;2023-03-14T06:35:21;11.70;99.90
31967;DHT22;18496;52.042;6.812;2023-03-14T06:37:25;11.70;99.90
31967;DHT22;18496;52.042;6.812;2023-03-14T06:39:29;11.70;99.90
31967;DHT22;18496;52.042;6.812;2023-03-14T06:41:41;11.70;99.90
31967;DHT22;18496;52.042;6.812;2023-03-14T06:43:46;11.70;99.90
31967;DHT22;18496;52.042;6.812;2023-03-14T06:45:50;11.70;99.90
31967;DHT22;18496;52.042;6.812;2023-03-14T06:47:54;11.70;99.90
31967;DHT22;18496;52.042;6.812;2023-03-14T06:50:02;11.70;99.90
31967;DHT22;18496;52.042;6.812;2023-03-14T06:52:07;11.70;99.90
31967;DHT22;18496;52.042;6.812;2023-03-14T06:54:11;11.70;99.90
31967;DHT22;18496;52.042;6.812;2023-03-14T06:56:15;11.60;99.90
31967;DHT22;18496;52.042;6.812;2023-03-14T06:58:19;11.60;99.90
31967;DHT22;18496;52.042;6.812;2023-03-14T07:00:23;11.60;99.90
31967;DHT22;18496;52.042;6.812;2023-03-14T07:02:30;11.60;99.90
31967;DHT22;18496;52.042;6.812;2023-03-14T07:06:47;11.60;99.90
31967;DHT22;18496;52.042;6.812;2023-03-14T07:08:51;11.70;99.90
31967;DHT22;18496;52.042;6.812;2023-03-14T07:10:56;11.70;99.90
31967;DHT22;18496;52.042;6.812;2023-03-14T07:12:59;11.70;99.90
31967;DHT22;18496;52.042;6.812;2023-03-14T07:15:06;11.70;99.90
31967;DHT22;18496;52.042;6.812;2023-03-14T07:17:11;11.70;99.90
31967;DHT22;18496;52.042;6.812;2023-03-14T07:19:14;11.70;99.90
31967;DHT22;18496;52.042;6.812;2023-03-14T07:21:18;11.70;99.90
31967;DHT22;18496;52.042;6.812;2023-03-14T07:23:21;11.70;99.90
31967;DHT22;18496;52.042;6.812;2023-03-14T07:25:28;11.70;99.90
31967;DHT22;18496;52.042;6.812;2023-03-14T07:27:32;11.70;99.90
31967;DHT22;18496;52.042;6.812;2023-03-14T07:29:36;11.70;99.90
31967;DHT22;18496;52.042;6.812;2023-03-14T07:31:41;11.70;99.90
31967;DHT22;18496;52.042;6.812;2023-03-14T07:33:45;11.70;99.90
31967;DHT22;18496;52.042;6.812;2023-03-14T07:35:48;11.70;99.90
31967;DHT22;18496;52.042;6.812;2023-03-14T07:37:52;11.70;99.90
31967;DHT22;18496;52.042;6.812;2023-03-14T07:40:02;11.70;99.90
31967;DHT22;18496;52.042;6.812;2023-03-14T07:42:10;11.70;99.90
31967;DHT22;18496;52.042;6.812;2023-03-14T07:44:25;11.70;99.90
31967;DHT22;18496;52.042;6.812;2023-03-14T07:46:29;11.70;99.90
31967;DHT22;18496;52.042;6.812;2023-03-14T07:48:33;11.70;99.90
31967;DHT22;18496;52.042;6.812;2023-03-14T07:50:36;11.80;99.90
31967;DHT22;18496;52.042;6.812;2023-03-14T07:52:40;11.80;99.90
31967;DHT22;18496;52.042;6.812;2023-03-14T07:54:43;11.70;99.90
31967;DHT22;18496;52.042;6.812;2023-03-14T07:56:47;11.70;99.90
31967;DHT22;18496;52.042;6.812;2023-03-14T07:58:50;11.70;99.90
31967;DHT22;18496;52.042;6.812;2023-03-14T08:00:54;11.70;99.90
31967;DHT22;18496;52.042;6.812;2023-03-14T08:02:58;11.60;99.90
31967;DHT22;18496;52.042;6.812;2023-03-14T08:05:02;11.70;99.90
31967;DHT22;18496;52.042;6.812;2023-03-14T08:07:05;11.60;99.90
31967;DHT22;18496;52.042;6.812;2023-03-14T08:09:09;11.60;99.90
31967;DHT22;18496;52.042;6.812;2023-03-14T08:11:12;11.70;99.90
31967;DHT22;18496;52.042;6.812;2023-03-14T08:13:16;11.60;99.90
31967;DHT22;18496;52.042;6.812;2023-03-14T08:15:19;11.70;99.90
31967;DHT22;18496;52.042;6.812;2023-03-14T08:17:23;11.70;99.90
31967;DHT22;18496;52.042;6.812;2023-03-14T08:19:27;11.70;99.90
31967;DHT22;18496;52.042;6.812;2023-03-14T08:21:30;11.70;99.90
31967;DHT22;18496;52.042;6.812;2023-03-14T08:23:34;11.80;99.90
31967;DHT22;18496;52.042;6.812;2023-03-14T08:25:37;11.80;99.90
31967;DHT22;18496;52.042;6.812;2023-03-14T08:27:41;11.80;99.90
31967;DHT22;18496;52.042;6.812;2023-03-14T08:29:45;11.70;99.90
31967;DHT22;18496;52.042;6.812;2023-03-14T08:31:48;11.70;99.90
31967;DHT22;18496;52.042;6.812;2023-03-14T08:33:52;11.70;99.90
31967;DHT22;18496;52.042;6.812;2023-03-14T08:35:57;11.70;99.90
31967;DHT22;18496;52.042;6.812;2023-03-14T08:38:01;11.70;99.90
31967;DHT22;18496;52.042;6.812;2023-03-14T08:40:05;11.70;99.90
31967;DHT22;18496;52.042;6.812;2023-03-14T08:42:13;11.70;99.90
31967;DHT22;18496;52.042;6.812;2023-03-14T08:44:16;11.60;99.90
31967;DHT22;18496;52.042;6.812;2023-03-14T08:46:20;11.60;99.90
31967;DHT22;18496;52.042;6.812;2023-03-14T08:48:23;11.60;99.90
31967;DHT22;18496;52.042;6.812;2023-03-14T08:50:27;11.40;99.90
31967;DHT22;18496;52.042;6.812;2023-03-14T08:52:31;11.30;99.90
31967;DHT22;18496;52.042;6.812;2023-03-14T08:54:35;11.30;99.90
31967;DHT22;18496;52.042;6.812;2023-03-14T08:56:38;11.20;99.90
31967;DHT22;18496;52.042;6.812;2023-03-14T08:58:42;11.10;99.90
31967;DHT22;18496;52.042;6.812;2023-03-14T09:00:46;11.00;99.90
31967;DHT22;18496;52.042;6.812;2023-03-14T09:02:50;10.80;99.90
31967;DHT22;18496;52.042;6.812;2023-03-14T09:04:53;10.80;99.90
31967;DHT22;18496;52.042;6.812;2023-03-14T09:06:59;10.70;99.90
31967;DHT22;18496;52.042;6.812;2023-03-14T09:09:02;10.60;99.90
31967;DHT22;18496;52.042;6.812;2023-03-14T09:11:07;10.50;99.90
31967;DHT22;18496;52.042;6.812;2023-03-14T09:13:10;10.50;99.90
31967;DHT22;18496;52.042;6.812;2023-03-14T09:15:14;10.50;99.90
31967;DHT22;18496;52.042;6.812;2023-03-14T09:17:18;10.40;99.90
31967;DHT22;18496;52.042;6.812;2023-03-14T09:19:21;10.40;99.90
31967;DHT22;18496;52.042;6.812;2023-03-14T09:21:25;10.30;99.90
31967;DHT22;18496;52.042;6.812;2023-03-14T09:23:29;10.40;99.90
31967;DHT22;18496;52.042;6.812;2023-03-14T09:25:32;10.40;99.90
31967;DHT22;18496;52.042;6.812;2023-03-14T09:27:36;10.30;99.90
31967;DHT22;18496;52.042;6.812;2023-03-14T09:29:39;10.30;99.90
31967;DHT22;18496;52.042;6.812;2023-03-14T09:31:43;10.30;99.90
31967;DHT22;18496;52.042;6.812;2023-03-14T09:33:46;10.20;99.90
31967;DHT22;18496;52.042;6.812;2023-03-14T09:35:50;10.20;99.90
31967;DHT22;18496;52.042;6.812;2023-03-14T09:37:53;10.10;99.90
31967;DHT22;18496;52.042;6.812;2023-03-14T09:39:57;10.00;99.90
31967;DHT22;18496;52.042;6.812;2023-03-14T09:42:02;9.90;99.90
31967;DHT22;18496;52.042;6.812;2023-03-14T09:44:51;9.80;99.90
31967;DHT22;18496;52.042;6.812;2023-03-14T09:46:34;9.70;99.90
31967;DHT22;18496;52.042;6.812;2023-03-14T09:48:38;9.60;99.90
31967;DHT22;18496;52.042;6.812;2023-03-14T09:50:44;9.50;99.90
31967;DHT22;18496;52.042;6.812;2023-03-14T09:52:48;9.50;99.90
31967;DHT22;18496;52.042;6.812;2023-03-14T09:54:57;9.50;99.90
31967;DHT22;18496;52.042;6.812;2023-03-14T09:57:02;9.60;99.90
31967;DHT22;18496;52.042;6.812;2023-03-14T09:59:08;9.50;99.90
31967;DHT22;18496;52.042;6.812;2023-03-14T10:01:15;9.40;99.90
31967;DHT22;18496;52.042;6.812;2023-03-14T10:03:25;9.40;99.90
31967;DHT22;18496;52.042;6.812;2023-03-14T10:05:29;9.30;99.90
31967;DHT22;18496;52.042;6.812;2023-03-14T10:07:32;9.20;99.90
31967;DHT22;18496;52.042;6.812;2023-03-14T10:09:36;9.20;99.90
31967;DHT22;18496;52.042;6.812;2023-03-14T10:11:40;9.10;99.90
31967;DHT22;18496;52.042;6.812;2023-03-14T10:14:02;9.00;99.90
31967;DHT22;18496;52.042;6.812;2023-03-14T10:16:07;9.00;99.90
31967;DHT22;18496;52.042;6.812;2023-03-14T10:18:11;9.00;99.90
31967;DHT22;18496;52.042;6.812;2023-03-14T10:22:35;9.10;99.90
31967;DHT22;18496;52.042;6.812;2023-03-14T10:24:39;9.10;99.90
31967;DHT22;18496;52.042;6.812;2023-03-14T10:26:49;9.10;99.90
31967;DHT22;18496;52.042;6.812;2023-03-14T10:28:54;9.20;99.90
31967;DHT22;18496;52.042;6.812;2023-03-14T10:31:04;9.30;99.90
31967;DHT22;18496;52.042;6.812;2023-03-14T10:33:27;9.30;99.90
31967;DHT22;18496;52.042;6.812;2023-03-14T10:35:31;9.40;99.90
31967;DHT22;18496;52.042;6.812;2023-03-14T10:37:44;9.50;99.90
31967;DHT22;18496;52.042;6.812;2023-03-14T10:39:58;9.60;99.90
31967;DHT22;18496;52.042;6.812;2023-03-14T10:42:19;9.60;99.90
31967;DHT22;18496;52.042;6.812;2023-03-14T10:44:24;9.60;99.90
31967;DHT22;18496;52.042;6.812;2023-03-14T10:46:30;9.60;99.90
31967;DHT22;18496;52.042;6.812;2023-03-14T10:48:53;9.60;99.90
31967;DHT22;18496;52.042;6.812;2023-03-14T10:51:02;9.60;99.90
31967;DHT22;18496;52.042;6.812;2023-03-14T10:53:07;9.60;99.90
31967;DHT22;18496;52.042;6.812;2023-03-14T10:55:11;9.50;99.90
31967;DHT22;18496;52.042;6.812;2023-03-14T10:57:15;9.50;99.90
31967;DHT22;18496;52.042;6.812;2023-03-14T10:59:19;9.50;99.90
31967;DHT22;18496;52.042;6.812;2023-03-14T11:03:30;9.40;99.90
31967;DHT22;18496;52.042;6.812;2023-03-14T11:05:46;9.30;99.90
31967;DHT22;18496;52.042;6.812;2023-03-14T11:07:53;9.30;99.90
31967;DHT22;18496;52.042;6.812;2023-03-14T11:12:16;9.40;99.90
31967;DHT22;18496;52.042;6.812;2023-03-14T11:16:42;9.50;99.90
31967;DHT22;18496;52.042;6.812;2023-03-14T11:21:14;9.50;99.90
31967;DHT22;18496;52.042;6.812;2023-03-14T11:23:20;9.60;99.90
31967;DHT22;18496;52.042;6.812;2023-03-14T11:25:37;9.70;99.90
31967;DHT22;18496;52.042;6.812;2023-03-14T11:27:55;9.70;99.90
31967;DHT22;18496;52.042;6.812;2023-03-14T11:30:12;9.70;99.90
31967;DHT22;18496;52.042;6.812;2023-03-14T11:34:42;9.60;99.90
31967;DHT22;18496;52.042;6.812;2023-03-14T11:39:04;9.50;99.90
31967;DHT22;18496;52.042;6.812;2023-03-14T11:41:14;9.50;99.90
31967;DHT22;18496;52.042;6.812;2023-03-14T11:45:51;9.60;99.90
31967;DHT22;18496;52.042;6.812;2023-03-14T11:48:45;9.50;99.90
31967;DHT22;18496;52.042;6.812;2023-03-14T11:50:23;9.50;99.90
31967;DHT22;18496;52.042;6.812;2023-03-14T11:54:42;9.50;99.90
31967;DHT22;18496;52.042;6.812;2023-03-14T11:56:54;9.40;99.90
31967;DHT22;18496;52.042;6.812;2023-03-14T11:59:00;9.30;99.90
31967;DHT22;18496;52.042;6.812;2023-03-14T12:01:08;9.30;99.90
31967;DHT22;18496;52.042;6.812;2023-03-14T12:03:29;9.20;99.90
31967;DHT22;18496;52.042;6.812;2023-03-14T12:10:12;9.30;99.90
31967;DHT22;18496;52.042;6.812;2023-03-14T12:12:18;9.30;99.90
31967;DHT22;18496;52.042;6.812;2023-03-14T12:16:33;9.10;99.90
31967;DHT22;18496;52.042;6.812;2023-03-14T12:18:37;9.10;99.90
31967;DHT22;18496;52.042;6.812;2023-03-14T12:20:41;9.10;99.90
31967;DHT22;18496;52.042;6.812;2023-03-14T12:22:54;9.20;99.90
31967;DHT22;18496;52.042;6.812;2023-03-14T12:25:42;9.20;99.90
31967;DHT22;18496;52.042;6.812;2023-03-14T12:27:46;9.30;99.90
31967;DHT22;18496;52.042;6.812;2023-03-14T12:29:58;9.40;99.90
31967;DHT22;18496;52.042;6.812;2023-03-14T12:32:06;9.60;99.90
31967;DHT22;18496;52.042;6.812;2023-03-14T12:36:31;9.60;99.90
31967;DHT22;18496;52.042;6.812;2023-03-14T12:40:57;9.80;99.90
31967;DHT22;18496;52.042;6.812;2023-03-14T12:43:02;9.80;99.90
31967;DHT22;18496;52.042;6.812;2023-03-14T12:49:33;10.00;99.90
31967;DHT22;18496;52.042;6.812;2023-03-14T12:51:41;10.00;99.90
31967;DHT22;18496;52.042;6.812;2023-03-14T12:58:16;10.10;99.90
31967;DHT22;18496;52.042;6.812;2023-03-14T13:00:24;10.10;99.90
31967;DHT22;18496;52.042;6.812;2023-03-14T13:02:41;10.10;99.90
31967;DHT22;18496;52.042;6.812;2023-03-14T13:05:05;10.10;99.90
31967;DHT22;18496;52.042;6.812;2023-03-14T13:07:35;10.10;99.90
31967;DHT22;18496;52.042;6.812;2023-03-14T13:09:49;10.10;99.90
31967;DHT22;18496;52.042;6.812;2023-03-14T13:11:54;10.10;99.90
31967;DHT22;18496;52.042;6.812;2023-03-14T13:13:58;10.10;99.90
31967;DHT22;18496;52.042;6.812;2023-03-14T13:16:02;10.10;99.90
31967;DHT22;18496;52.042;6.812;2023-03-14T13:18:10;10.10;99.90
31967;DHT22;18496;52.042;6.812;2023-03-14T13:20:17;10.10;99.90
31967;DHT22;18496;52.042;6.812;2023-03-14T13:22:30;10.10;99.90
31967;DHT22;18496;52.042;6.812;2023-03-14T13:24:34;10.10;99.90
31967;DHT22;18496;52.042;6.812;2023-03-14T13:26:42;10.20;99.90
31967;DHT22;18496;52.042;6.812;2023-03-14T13:28:46;10.20;99.90
31967;DHT22;18496;52.042;6.812;2023-03-14T13:30:50;10.20;99.90
31967;DHT22;18496;52.042;6.812;2023-03-14T13:32:57;10.20;99.90
31967;DHT22;18496;52.042;6.812;2023-03-14T13:35:01;10.30;99.90
31967;DHT22;18496;52.042;6.812;2023-03-14T13:37:05;10.30;99.50
31967;DHT22;18496;52.042;6.812;2023-03-14T13:39:19;10.40;99.90
31967;DHT22;18496;52.042;6.812;2023-03-14T13:41:25;10.60;99.90
31967;DHT22;18496;52.042;6.812;2023-03-14T13:45:47;10.70;98.10
31967;DHT22;18496;52.042;6.812;2023-03-14T13:47:51;10.80;98.80
31967;DHT22;18496;52.042;6.812;2023-03-14T13:49:55;10.90;96.90
31967;DHT22;18496;52.042;6.812;2023-03-14T13:51:59;11.00;97.30
31967;DHT22;18496;52.042;6.812;2023-03-14T13:54:02;11.10;96.20
31967;DHT22;18496;52.042;6.812;2023-03-14T13:56:09;11.10;95.60
31967;DHT22;18496;52.042;6.812;2023-03-14T13:58:30;11.10;95.60
31967;DHT22;18496;52.042;6.812;2023-03-14T14:00:33;11.10;94.40
31967;DHT22;18496;52.042;6.812;2023-03-14T14:02:37;11.00;94.20
31967;DHT22;18496;52.042;6.812;2023-03-14T14:04:41;10.90;92.80
31967;DHT22;18496;52.042;6.812;2023-03-14T14:06:45;10.70;92.70
31967;DHT22;18496;52.042;6.812;2023-03-14T14:08:52;10.70;95.40
31967;DHT22;18496;52.042;6.812;2023-03-14T14:10:59;10.80;92.30
31967;DHT22;18496;52.042;6.812;2023-03-14T14:13:06;10.80;92.90
31967;DHT22;18496;52.042;6.812;2023-03-14T14:15:13;10.80;93.50